createdAt,value
2023-05-13T00:02:08.450Z,10.86
2023-05-13T00:04:52.254Z,10.84
2023-05-13T00:07:36.127Z,10.89
2023-05-13T00:10:20.803Z,10.78
2023-05-13T00:13:04.987Z,10.66
2023-05-13T00:15:50.358Z,10.28
2023-05-13T00:18:34.198Z,10.29
2023-05-13T00:21:18.315Z,10.16
2023-05-13T00:24:02.448Z,10.31
2023-05-13T00:26:46.360Z,10.64
2023-05-13T00:29:31.639Z,10.28
2023-05-13T00:32:17.245Z,10.43
2023-05-13T00:35:01.313Z,9.76
2023-05-13T00:37:46.236Z,10.09
2023-05-13T00:40:30.808Z,10.04
2023-05-13T00:43:14.792Z,9.82
2023-05-13T00:45:59.537Z,9.39
2023-05-13T00:48:45.458Z,9.89
2023-05-13T00:51:29.829Z,10.11
2023-05-13T00:54:13.920Z,10.03
2023-05-13T00:56:59.641Z,9.75
2023-05-13T00:59:43.886Z,9.88
2023-05-13T01:02:34.821Z,9.83
2023-05-13T01:05:30.173Z,9.69
2023-05-13T01:08:22.748Z,9.72
2023-05-13T01:11:14.918Z,9.76
2023-05-13T01:14:04.838Z,9.98
2023-05-13T01:16:53.307Z,9.78
2023-05-13T01:19:43.416Z,9.93
2023-05-13T01:22:28.904Z,10.07
2023-05-13T01:25:13.040Z,10.07
2023-05-13T01:27:57.497Z,9.93
2023-05-13T01:30:41.862Z,9.98
2023-05-13T01:33:27.696Z,10.07
2023-05-13T01:36:12.019Z,10.34
2023-05-13T01:38:59.494Z,10.05
2023-05-13T01:41:46.200Z,10.17
2023-05-13T01:44:30.561Z,10.40
2023-05-13T01:47:15.784Z,10.33
2023-05-13T01:50:00.052Z,10.28
2023-05-13T01:52:44.903Z,10.43
2023-05-13T01:55:30.607Z,10.32
2023-05-13T01:58:16.239Z,10.28
2023-05-13T02:01:00.280Z,10.01
2023-05-13T02:03:45.262Z,9.92
2023-05-13T02:06:29.884Z,10.01
2023-05-13T02:09:14.335Z,9.61
2023-05-13T02:11:59.820Z,9.45
2023-05-13T02:14:45.571Z,9.30
2023-05-13T02:17:29.743Z,9.39
2023-05-13T02:20:15.746Z,9.25
2023-05-13T02:22:59.860Z,9.10
2023-05-13T02:25:45.873Z,9.09
2023-05-13T02:28:31.468Z,9.18
2023-05-13T02:31:15.657Z,9.35
2023-05-13T02:34:01.349Z,9.23
2023-05-13T02:36:45.427Z,9.20
2023-05-13T02:39:29.401Z,9.11
2023-05-13T02:42:15.137Z,9.22
2023-05-13T02:45:00.811Z,9.19
2023-05-13T02:47:48.965Z,9.23
2023-05-13T02:50:33.558Z,8.93
2023-05-13T02:53:17.874Z,8.79
2023-05-13T02:56:08.822Z,9.09
2023-05-13T02:58:54.403Z,9.25
2023-05-13T03:01:39.884Z,9.35
2023-05-13T03:04:24.262Z,9.59
2023-05-13T03:07:08.249Z,9.67
2023-05-13T03:09:52.121Z,9.86
2023-05-13T03:12:36.296Z,9.94
2023-05-13T03:15:20.509Z,10.12
2023-05-13T03:18:06.477Z,10.25
2023-05-13T03:20:50.682Z,10.53
2023-05-13T03:23:35.519Z,10.63
2023-05-13T03:26:19.957Z,10.72
2023-05-13T03:29:03.872Z,10.82
2023-05-13T03:31:47.996Z,11.13
2023-05-13T03:34:33.572Z,11.21
2023-05-13T03:37:17.848Z,11.16
2023-05-13T03:40:02.118Z,11.24
2023-05-13T03:42:48.054Z,11.19
2023-05-13T03:45:32.030Z,11.43
2023-05-13T03:48:21.036Z,11.21
2023-05-13T03:51:06.549Z,11.05
2023-05-13T03:53:50.528Z,11.23
2023-05-13T03:56:35.202Z,11.34
2023-05-13T03:59:18.999Z,11.65
2023-05-13T04:02:03.095Z,11.87
2023-05-13T04:04:47.979Z,12.05
2023-05-13T04:07:33.261Z,12.19
2023-05-13T04:10:17.162Z,11.99
2023-05-13T04:13:01.106Z,12.15
2023-05-13T04:15:45.167Z,12.49
2023-05-13T04:18:30.385Z,12.72
2023-05-13T04:21:14.121Z,12.95
2023-05-13T04:23:59.324Z,13.13
2023-05-13T04:26:43.058Z,13.48
2023-05-13T04:29:26.954Z,13.69
2023-05-13T04:32:11.034Z,13.75
2023-05-13T04:34:55.864Z,13.93
2023-05-13T04:37:42.231Z,14.13
2023-05-13T04:40:31.567Z,14.08
2023-05-13T04:43:20.250Z,14.31
2023-05-13T04:46:08.571Z,14.20
2023-05-13T04:48:52.432Z,14.40
2023-05-13T04:51:36.920Z,14.45
2023-05-13T04:54:21.163Z,14.23
2023-05-13T04:57:07.431Z,14.17
2023-05-13T04:59:51.903Z,14.26
2023-05-13T05:02:36.522Z,14.26
2023-05-13T05:05:20.468Z,14.13
2023-05-13T05:08:04.251Z,14.33
2023-05-13T05:10:48.141Z,14.23
2023-05-13T05:13:34.363Z,14.34
2023-05-13T05:16:18.492Z,14.47
2023-05-13T05:19:02.949Z,14.47
2023-05-13T05:21:47.694Z,14.27
2023-05-13T05:24:32.009Z,14.48
2023-05-13T05:27:15.821Z,14.52
2023-05-13T05:30:01.068Z,14.70
2023-05-13T05:32:48.439Z,15.02
2023-05-13T05:35:33.416Z,15.23
2023-05-13T05:38:17.369Z,15.13
2023-05-13T05:41:02.448Z,15.34
2023-05-13T05:43:46.986Z,15.48
2023-05-13T05:46:32.723Z,15.53
2023-05-13T05:49:18.093Z,15.70
2023-05-13T05:52:02.006Z,15.68
2023-05-13T05:54:47.389Z,15.37
2023-05-13T05:57:31.451Z,16.08
2023-05-13T06:00:16.135Z,15.99
2023-05-13T06:03:01.351Z,15.97
2023-05-13T06:05:45.542Z,16.41
2023-05-13T06:08:30.459Z,15.83
2023-05-13T06:11:14.918Z,16.26
2023-05-13T06:13:59.707Z,15.86
2023-05-13T06:16:44.621Z,16.20
2023-05-13T06:19:30.148Z,15.99
2023-05-13T06:22:14.617Z,15.97
2023-05-13T06:25:00.096Z,16.28
2023-05-13T06:27:44.487Z,16.80
2023-05-13T06:30:28.607Z,16.41
2023-05-13T06:33:12.978Z,16.22
2023-05-13T06:35:58.586Z,16.72
2023-05-13T06:38:44.013Z,16.75
2023-05-13T06:41:28.102Z,16.68
2023-05-13T06:44:17.332Z,16.64
2023-05-13T06:47:05.174Z,16.95
2023-05-13T06:49:49.242Z,16.93
2023-05-13T06:52:34.746Z,16.75
2023-05-13T06:55:19.205Z,16.91
2023-05-13T06:58:03.252Z,16.84
2023-05-13T07:00:48.374Z,17.60
2023-05-13T07:03:32.463Z,17.82
2023-05-13T07:06:16.663Z,17.90
2023-05-13T07:09:05.353Z,17.70
2023-05-13T07:11:52.401Z,17.57
2023-05-13T07:14:36.444Z,17.73
2023-05-13T07:17:20.494Z,18.09
2023-05-13T07:20:04.822Z,18.24
2023-05-13T07:22:48.896Z,18.63
2023-05-13T07:25:34.657Z,17.96
2023-05-13T07:28:18.615Z,17.74
2023-05-13T07:31:02.729Z,17.92
2023-05-13T07:33:46.841Z,17.98
2023-05-13T07:36:31.076Z,18.03
2023-05-13T07:39:15.125Z,18.27
2023-05-13T07:42:00.953Z,18.50
2023-05-13T07:44:44.931Z,19.03
2023-05-13T07:47:29.378Z,19.02
2023-05-13T07:50:13.819Z,18.58
2023-05-13T07:52:58.071Z,18.63
2023-05-13T07:55:42.076Z,18.36
2023-05-13T07:58:27.575Z,19.17
2023-05-13T08:01:11.748Z,19.30
2023-05-13T08:03:56.099Z,19.32
2023-05-13T08:06:40.347Z,20.37
2023-05-13T08:09:24.679Z,19.84
2023-05-13T08:12:09.355Z,20.07
2023-05-13T08:14:54.916Z,20.30
2023-05-13T08:17:39.262Z,20.82
2023-05-13T08:20:30.021Z,20.05
2023-05-13T08:23:14.430Z,20.72
2023-05-13T08:25:58.729Z,20.76
2023-05-13T08:28:42.880Z,20.05
2023-05-13T08:31:28.542Z,20.26
2023-05-13T08:34:12.548Z,20.88
2023-05-13T08:36:56.678Z,20.88
2023-05-13T08:39:40.642Z,20.56
2023-05-13T08:42:25.997Z,20.30
2023-05-13T08:45:12.465Z,20.89
2023-05-13T08:47:59.872Z,21.00
2023-05-13T08:50:44.464Z,21.99
2023-05-13T08:53:28.606Z,21.98
2023-05-13T08:56:13.362Z,21.81
2023-05-13T08:58:57.410Z,22.26
2023-05-13T09:01:41.379Z,21.92
2023-05-13T09:04:27.176Z,22.01
2023-05-13T09:07:12.059Z,22.00
2023-05-13T09:09:55.885Z,22.99
2023-05-13T09:12:47.311Z,22.64
2023-05-13T09:15:31.569Z,22.14
2023-05-13T09:18:18.659Z,21.85
2023-05-13T09:21:25.989Z,22.13
2023-05-13T09:24:18.227Z,23.06
2023-05-13T09:27:02.104Z,22.97
2023-05-13T09:29:46.113Z,22.45
2023-05-13T09:32:30.022Z,22.56
2023-05-13T09:35:18.836Z,22.79
2023-05-13T09:38:13.807Z,22.81
2023-05-13T09:40:59.372Z,23.02
2023-05-13T09:43:43.619Z,24.05
2023-05-13T09:46:27.480Z,23.98
2023-05-13T09:49:11.498Z,22.72
2023-05-13T09:51:55.289Z,23.36
2023-05-13T09:54:40.780Z,24.05
2023-05-13T09:57:24.778Z,23.43
2023-05-13T10:00:24.853Z,22.15
2023-05-13T10:03:13.443Z,23.12
2023-05-13T10:06:02.299Z,23.22
2023-05-13T10:08:48.643Z,23.30
2023-05-13T10:11:36.585Z,23.91
2023-05-13T10:14:20.784Z,22.96
2023-05-13T10:17:05.483Z,24.33
2023-05-13T10:19:51.317Z,24.66
2023-05-13T10:22:35.878Z,25.67
2023-05-13T10:25:20.631Z,24.29
2023-05-13T10:28:06.807Z,24.47
2023-05-13T10:30:51.196Z,24.79
2023-05-13T10:33:35.192Z,24.25
2023-05-13T10:36:43.738Z,24.28
2023-05-13T10:40:06.705Z,23.89
2023-05-13T10:42:57.729Z,22.33
2023-05-13T10:45:46.226Z,22.63
2023-05-13T10:48:40.104Z,22.74
2023-05-13T10:51:25.386Z,22.17
2023-05-13T10:54:20.406Z,22.34
2023-05-13T10:57:04.338Z,22.45
2023-05-13T11:00:15.902Z,22.39
2023-05-13T11:03:26.732Z,22.43
2023-05-13T11:06:19.725Z,22.25
2023-05-13T11:09:06.859Z,21.69
2023-05-13T11:11:54.654Z,21.68
2023-05-13T11:14:38.461Z,22.46
2023-05-13T11:17:22.393Z,22.12
2023-05-13T11:20:09.549Z,22.80
2023-05-13T11:22:53.424Z,22.31
2023-05-13T11:25:37.651Z,22.40
2023-05-13T11:28:54.926Z,22.96
2023-05-13T11:31:48.577Z,22.95
2023-05-13T11:34:33.528Z,22.73
2023-05-13T11:37:19.422Z,22.57
2023-05-13T11:40:04.564Z,22.88
2023-05-13T11:42:49.212Z,23.17
2023-05-13T11:45:33.572Z,23.26
2023-05-13T11:48:22.289Z,22.63
2023-05-13T11:51:07.348Z,23.28
2023-05-13T11:53:53.234Z,22.86
2023-05-13T11:56:37.088Z,23.47
2023-05-13T11:59:20.878Z,24.03
2023-05-13T12:02:05.115Z,23.35
2023-05-13T12:04:49.130Z,22.62
2023-05-13T12:07:33.622Z,23.64
2023-05-13T12:10:19.226Z,22.89
2023-05-13T12:13:04.479Z,23.25
2023-05-13T12:15:50.341Z,23.77
2023-05-13T12:18:34.987Z,24.56
2023-05-13T12:21:18.860Z,24.42
2023-05-13T12:24:02.698Z,24.08
2023-05-13T12:26:48.270Z,23.10
2023-05-13T12:29:41.161Z,23.02
2023-05-13T12:32:26.489Z,23.08
2023-05-13T12:35:14.387Z,23.57
2023-05-13T12:38:03.218Z,23.61
2023-05-13T12:40:47.816Z,23.72
2023-05-13T12:43:34.276Z,23.90
2023-05-13T12:46:18.511Z,24.33
2023-05-13T12:49:04.586Z,24.51
2023-05-13T12:51:48.467Z,24.14
2023-05-13T12:54:32.412Z,23.71
2023-05-13T12:57:17.401Z,24.22
2023-05-13T13:00:02.760Z,24.06
2023-05-13T13:02:49.373Z,24.20
2023-05-13T13:05:33.346Z,24.46
2023-05-13T13:08:17.555Z,25.23
2023-05-13T13:11:01.687Z,25.24
2023-05-13T13:13:45.816Z,25.35
2023-05-13T13:16:32.018Z,24.35
2023-05-13T13:19:15.979Z,25.17
2023-05-13T13:22:00.043Z,25.44
2023-05-13T13:24:43.862Z,24.67
2023-05-13T13:27:27.768Z,24.10
2023-05-13T13:30:13.300Z,23.65
2023-05-13T13:32:58.660Z,23.79
2023-05-13T13:35:43.680Z,23.64
2023-05-13T13:38:27.575Z,23.32
2023-05-13T13:41:11.471Z,23.36
2023-05-13T13:43:55.329Z,24.31
2023-05-13T13:46:39.301Z,24.71
2023-05-13T13:49:25.088Z,24.44
2023-05-13T13:52:10.660Z,24.40
2023-05-13T13:54:54.408Z,23.77
2023-05-13T13:57:38.259Z,24.72
2023-05-13T14:00:22.526Z,24.00
2023-05-13T14:03:06.662Z,24.51
2023-05-13T14:05:52.098Z,24.38
2023-05-13T14:08:35.892Z,23.89
2023-05-13T14:11:19.784Z,23.56
2023-05-13T14:14:03.721Z,24.12
2023-05-13T14:16:48.167Z,24.91
2023-05-13T14:19:32.279Z,24.13
2023-05-13T14:22:17.850Z,24.78
2023-05-13T14:25:01.926Z,23.93
2023-05-13T14:27:48.035Z,24.50
2023-05-13T14:30:32.010Z,24.56
2023-05-13T14:33:15.989Z,24.29
2023-05-13T14:35:59.964Z,23.74
2023-05-13T14:38:45.550Z,24.19
2023-05-13T14:41:30.053Z,23.58
2023-05-13T14:44:14.448Z,23.42
2023-05-13T14:46:58.550Z,23.02
2023-05-13T14:49:42.593Z,22.83
2023-05-13T14:52:27.093Z,22.26
2023-05-13T14:55:13.246Z,22.65
2023-05-13T14:57:57.358Z,22.62
2023-05-13T15:00:41.821Z,22.85
2023-05-13T15:03:25.716Z,22.76
2023-05-13T15:06:09.925Z,21.99
2023-05-13T15:08:53.919Z,22.60
2023-05-13T15:11:42.251Z,22.66
2023-05-13T15:14:26.454Z,22.47
2023-05-13T15:17:12.123Z,22.32
2023-05-13T15:19:56.084Z,22.18
2023-05-13T15:22:39.835Z,22.05
2023-05-13T15:25:23.629Z,21.95
2023-05-13T15:28:09.056Z,21.48
2023-05-13T15:30:53.004Z,21.99
2023-05-13T15:33:36.897Z,22.27
2023-05-13T15:36:20.707Z,22.55
2023-05-13T15:39:04.753Z,22.33
2023-05-13T15:41:49.624Z,22.12
2023-05-13T15:44:35.166Z,21.58
2023-05-13T15:47:19.308Z,21.65
2023-05-13T15:50:03.804Z,21.79
2023-05-13T15:52:49.017Z,21.59
2023-05-13T15:55:33.115Z,21.20
2023-05-13T15:58:16.913Z,20.92
2023-05-13T16:01:02.263Z,20.24
2023-05-13T16:03:46.108Z,21.09
2023-05-13T16:06:30.131Z,20.27
2023-05-13T16:09:14.167Z,20.17
2023-05-13T16:11:57.964Z,19.85
2023-05-13T16:14:41.902Z,20.13
2023-05-13T16:17:27.136Z,20.41
2023-05-13T16:20:11.823Z,20.56
2023-05-13T16:22:55.917Z,20.31
2023-05-13T16:25:40.302Z,19.87
2023-05-13T16:28:24.150Z,19.70
2023-05-13T16:31:07.905Z,19.48
2023-05-13T16:33:53.400Z,18.26
2023-05-13T16:36:37.341Z,18.68
2023-05-13T16:39:21.152Z,18.69
2023-05-13T16:42:05.072Z,18.63
2023-05-13T16:44:49.222Z,18.65
2023-05-13T16:47:33.116Z,18.12
2023-05-13T16:50:18.334Z,17.86
2023-05-13T16:53:02.355Z,17.74
2023-05-13T16:55:46.276Z,17.69
2023-05-13T16:58:30.131Z,17.81
2023-05-13T17:01:13.982Z,18.27
2023-05-13T17:03:57.964Z,18.21
2023-05-13T17:06:43.159Z,18.40
2023-05-13T17:09:27.142Z,18.47
2023-05-13T17:12:11.121Z,18.31
2023-05-13T17:14:54.995Z,18.07
2023-05-13T17:17:38.879Z,17.84
2023-05-13T17:20:23.170Z,17.47
2023-05-13T17:23:08.542Z,17.51
2023-05-13T17:25:52.404Z,17.15
2023-05-13T17:28:38.362Z,16.98
2023-05-13T17:31:22.226Z,16.61
2023-05-13T17:34:06.465Z,16.25
2023-05-13T17:36:50.451Z,16.29
2023-05-13T17:39:35.817Z,15.98
2023-05-13T17:42:19.767Z,15.22
2023-05-13T17:45:04.318Z,15.05
2023-05-13T17:47:50.397Z,14.83
2023-05-13T17:50:34.330Z,14.73
2023-05-13T17:53:18.323Z,14.44
2023-05-13T17:56:03.632Z,14.28
2023-05-13T17:58:47.526Z,14.19
2023-05-13T18:01:31.371Z,14.10
2023-05-13T18:04:15.233Z,13.11
2023-05-13T18:06:59.106Z,14.22
2023-05-13T18:09:42.944Z,13.85
2023-05-13T18:12:28.118Z,13.68
2023-05-13T18:15:12.173Z,13.50
2023-05-13T18:17:56.025Z,13.47
2023-05-13T18:20:42.169Z,13.26
2023-05-13T18:23:26.080Z,13.40
2023-05-13T18:26:09.915Z,13.38
2023-05-13T18:28:55.102Z,13.31
2023-05-13T18:31:39.160Z,13.18
2023-05-13T18:34:23.249Z,13.07
2023-05-13T18:37:07.632Z,13.43
2023-05-13T18:39:51.500Z,13.51
2023-05-13T18:42:35.336Z,13.36
2023-05-13T18:45:21.134Z,12.83
2023-05-13T18:48:05.322Z,13.10
2023-05-13T18:50:49.144Z,13.20
2023-05-13T18:53:32.961Z,12.68
2023-05-13T18:56:16.805Z,12.79
2023-05-13T18:59:00.881Z,12.85
2023-05-13T19:01:46.234Z,12.82
2023-05-13T19:04:30.243Z,12.67
2023-05-13T19:07:14.363Z,12.61
2023-05-13T19:09:58.369Z,12.74
2023-05-13T19:12:42.206Z,13.01
2023-05-13T19:15:26.517Z,12.83
2023-05-13T19:18:11.689Z,13.02
2023-05-13T19:20:55.716Z,13.04
2023-05-13T19:23:39.674Z,13.21
2023-05-13T19:26:23.485Z,13.05
2023-05-13T19:29:07.807Z,13.11
2023-05-13T19:31:51.671Z,12.88
2023-05-13T19:34:36.806Z,12.73
2023-05-13T19:37:20.750Z,12.80
2023-05-13T19:40:05.357Z,12.67
2023-05-13T19:42:49.475Z,12.90
2023-05-13T19:45:33.393Z,12.87
2023-05-13T19:48:17.245Z,12.78
2023-05-13T19:51:02.468Z,12.18
2023-05-13T19:53:46.334Z,12.49
2023-05-13T19:56:30.175Z,12.34
2023-05-13T19:59:13.986Z,11.66
2023-05-13T20:01:57.809Z,11.63
2023-05-13T20:04:41.628Z,11.64
2023-05-13T20:07:26.875Z,11.76
2023-05-13T20:10:12.003Z,11.43
2023-05-13T20:12:55.888Z,11.38
2023-05-13T20:15:39.658Z,11.67
2023-05-13T20:18:23.569Z,11.74
2023-05-13T20:21:07.433Z,11.84
2023-05-13T20:23:52.712Z,11.54
2023-05-13T20:26:36.793Z,11.64
2023-05-13T20:29:20.717Z,11.81
2023-05-13T20:32:05.315Z,11.83
2023-05-13T20:34:49.299Z,11.83
2023-05-13T20:37:33.104Z,11.96
2023-05-13T20:40:18.298Z,11.85
2023-05-13T20:43:05.063Z,11.66
2023-05-13T20:45:50.158Z,11.83
2023-05-13T20:48:35.122Z,11.94
2023-05-13T20:51:19.060Z,11.71
2023-05-13T20:54:02.865Z,12.02
2023-05-13T20:56:48.140Z,11.97
2023-05-13T20:59:32.069Z,12.02
2023-05-13T21:02:15.863Z,12.23
2023-05-13T21:04:59.712Z,11.99
2023-05-13T21:07:43.501Z,11.66
2023-05-13T21:10:27.517Z,11.39
2023-05-13T21:13:12.870Z,11.33
2023-05-13T21:15:57.509Z,11.16
2023-05-13T21:18:41.585Z,11.23
2023-05-13T21:21:25.546Z,11.31
2023-05-13T21:24:09.463Z,11.13
2023-05-13T21:26:55.497Z,11.15
2023-05-13T21:29:40.980Z,11.20
2023-05-13T21:32:24.952Z,11.00
2023-05-13T21:35:09.548Z,11.00
2023-05-13T21:37:58.581Z,11.21
2023-05-13T21:40:48.679Z,11.25
2023-05-13T21:43:32.558Z,11.21
2023-05-13T21:46:17.848Z,11.32
2023-05-13T21:49:01.806Z,11.04
2023-05-13T21:51:45.638Z,10.63
2023-05-13T21:54:29.405Z,10.66
2023-05-13T21:57:13.220Z,10.69
2023-05-13T21:59:57.039Z,10.64
2023-05-13T22:02:42.519Z,10.52
2023-05-13T22:05:26.391Z,10.55
2023-05-13T22:08:10.229Z,10.53
2023-05-13T22:10:54.188Z,10.69
2023-05-13T22:13:38.181Z,10.49
2023-05-13T22:16:22.128Z,10.48
2023-05-13T22:19:07.421Z,10.67
2023-05-13T22:21:51.387Z,10.49
2023-05-13T22:24:35.194Z,10.41
2023-05-13T22:27:19.054Z,10.49
2023-05-13T22:30:02.805Z,10.65
2023-05-13T22:32:50.982Z,10.55
2023-05-13T22:35:37.228Z,10.63
2023-05-13T22:38:21.083Z,10.59
2023-05-13T22:41:04.863Z,10.59
2023-05-13T22:43:48.744Z,10.51
2023-05-13T22:46:32.665Z,10.30
2023-05-13T22:49:16.560Z,10.23
2023-05-13T22:52:01.802Z,10.21
2023-05-13T22:54:45.621Z,10.17
2023-05-13T22:57:29.419Z,10.19
2023-05-13T23:00:14.577Z,10.26
2023-05-13T23:02:58.684Z,10.27
2023-05-13T23:05:42.805Z,10.03
2023-05-13T23:08:28.611Z,9.94
2023-05-13T23:11:12.426Z,10.16
2023-05-13T23:13:56.237Z,9.88
2023-05-13T23:16:40.051Z,10.20
2023-05-13T23:19:25.412Z,10.23
2023-05-13T23:22:09.263Z,10.36
2023-05-13T23:24:54.434Z,10.38
2023-05-13T23:27:38.211Z,10.29
2023-05-13T23:30:22.710Z,10.55
2023-05-13T23:33:06.728Z,10.46
2023-05-13T23:35:54.163Z,10.66
2023-05-13T23:38:37.916Z,10.54
2023-05-13T23:41:23.146Z,10.48
2023-05-13T23:44:06.979Z,10.52
2023-05-13T23:46:50.934Z,10.62
2023-05-13T23:49:34.792Z,10.77
2023-05-13T23:52:18.705Z,10.75
2023-05-13T23:55:03.687Z,10.62
2023-05-13T23:57:51.561Z,10.53
